»·PEaware :: N2842Y KSBD-KEMT

N2842Y :: KSBD-KEMT

FLIGHT INFORMATION

Flight Status: Arrived
Operator: Privately registered:
United States
More flights under this callsign
Pilot: Cody B. (17747)
Aircraft: CESSNA 172 SKYHAWK
(C172)
More flights by this aircraft type
Origin: KSBD San Bernardino Intl
United States
Destination: KEMT El Monte
United States
More flights between these airports :: More routes between these airports
Route:
File this flight plan on PilotEdge
Remarks:
Altitude:
(Current/Filed)
4,500ft
Speed:
(Current/Filed)
115kts
Departed: 15-Jun-18 11:05 AM
Arrived: 15-Jun-18 11:41 AM
Distance/Time
Traveled:
1nm/0:35
Distance/Time
To Go:
Arrived

Flight Plot

Page will automatically refresh every two minutes.


Map Options




Map Legend


Flown Route
Filed Route
Departure Airport
Arrival Airport
Navaid (VOR, NDB)
Fix

Horizontal Profiles

Position Reports

Time Latitude Longitude Heading Altitude Ground
Speed
15-Jun-18 10:46 34.102166 -117.224730 93 1146ft 0kts
15-Jun-18 10:47 34.102166 -117.224730 93 1146ft 0kts
15-Jun-18 10:48 34.102166 -117.224730 93 1146ft 0kts
15-Jun-18 10:49 34.102166 -117.224730 93 1146ft 0kts
15-Jun-18 10:50 34.102166 -117.224730 93 1146ft 0kts
15-Jun-18 10:51 34.102166 -117.224730 93 1146ft 0kts
15-Jun-18 10:52 34.102166 -117.224730 93 1146ft 0kts
15-Jun-18 10:53 34.102166 -117.224730 94 1146ft 0kts
15-Jun-18 10:54 34.102166 -117.224730 94 1146ft 0kts
15-Jun-18 10:55 34.102166 -117.224730 93 1146ft 0kts
15-Jun-18 10:56 34.101908 -117.224728 175 1146ft 3kts
15-Jun-18 10:57 34.099991 -117.227228 185 1138ft 9kts
15-Jun-18 10:58 34.098657 -117.229734 250 1133ft 16kts
15-Jun-18 10:59 34.096808 -117.235978 250 1115ft 20kts
15-Jun-18 11:00 34.095151 -117.241603 250 1100ft 14kts
15-Jun-18 11:01 34.093794 -117.246177 250 1091ft 14kts
15-Jun-18 11:02 34.092467 -117.250672 242 1082ft 9kts
15-Jun-18 11:03 34.091525 -117.250728 154 1081ft 0kts
15-Jun-18 11:04 34.091498 -117.250713 154 1081ft 1kts
15-Jun-18 11:05 34.091596 -117.247325 70 1088ft 42kts
15-Jun-18 11:06 34.098902 -117.225252 63 1700ft 71kts
15-Jun-18 11:07 34.106633 -117.226782 255 2458ft 68kts
15-Jun-18 11:08 34.099735 -117.247285 250 3308ft 65kts
15-Jun-18 11:09 34.095395 -117.268057 263 4068ft 69kts
15-Jun-18 11:10 34.094298 -117.291556 263 4761ft 78kts
15-Jun-18 11:11 34.091610 -117.321665 241 4993ft 91kts
15-Jun-18 11:12 34.072548 -117.331741 173 4678ft 85kts
15-Jun-18 11:13 34.054241 -117.337532 281 4436ft 74kts
15-Jun-18 11:14 34.064265 -117.365949 293 4662ft 104kts
15-Jun-18 11:15 34.079297 -117.399322 294 4692ft 118kts
15-Jun-18 11:16 34.090054 -117.436185 276 4777ft 121kts
15-Jun-18 11:17 34.093867 -117.476226 266 4708ft 122kts
15-Jun-18 11:18 34.089706 -117.517126 267 4487ft 116kts
15-Jun-18 11:19 34.089244 -117.554572 273 4500ft 114kts
15-Jun-18 11:20 34.089766 -117.592391 275 4434ft 113kts
15-Jun-18 11:21 34.090207 -117.629078 274 4446ft 113kts
15-Jun-18 11:22 34.089585 -117.664841 268 4572ft 102kts
15-Jun-18 11:23 34.088580 -117.699148 268 4643ft 102kts
15-Jun-18 11:24 34.088905 -117.733981 268 4673ft 104kts
15-Jun-18 11:25 34.090448 -117.769669 270 4648ft 108kts
15-Jun-18 11:26 34.090818 -117.807357 266 4511ft 111kts
15-Jun-18 11:27 34.089892 -117.841434 266 4420ft 102kts
15-Jun-18 11:28 34.088762 -117.875503 271 4076ft 106kts
15-Jun-18 11:29 34.089502 -117.909857 273 3094ft 90kts
15-Jun-18 11:30 34.089747 -117.935926 268 2481ft 95kts
15-Jun-18 11:31 34.087687 -117.967218 264 1863ft 89kts
15-Jun-18 11:32 34.091470 -117.994926 279 1449ft 87kts
15-Jun-18 11:33 34.097820 -118.025403 278 1223ft 97kts
15-Jun-18 11:34 34.083708 -118.045380 208 1044ft 73kts
15-Jun-18 11:35 34.068311 -118.047407 101 1117ft 76kts
15-Jun-18 11:36 34.087771 -118.033769 24 774ft 98kts
15-Jun-18 11:37 34.109643 -118.008897 32 1152ft 121kts
15-Jun-18 11:38 34.124909 -118.009636 216 1121ft 67kts
15-Jun-18 11:39 34.108113 -118.022395 205 853ft 80kts
15-Jun-18 11:40 34.093733 -118.030434 206 421ft 48kts
15-Jun-18 11:41 34.085386 -118.034735 123 286ft 6kts
15-Jun-18 11:42 34.085351 -118.034650 125 287ft 0kts
15-Jun-18 11:43 34.084258 -118.034637 116 287ft 1kts
15-Jun-18 11:44 34.084385 -118.034469 26 287ft 0kts
15-Jun-18 11:45 34.084385 -118.034469 26 287ft 0kts
15-Jun-18 11:48 34.102166 -117.224730 94 1146ft 0kts
15-Jun-18 11:49 34.102166 -117.224730 94 1146ft 0kts
15-Jun-18 11:50 34.102166 -117.224730 93 1146ft 0kts
15-Jun-18 11:51 34.102166 -117.224730 93 1146ft 0kts
15-Jun-18 11:52 34.102166 -117.224730 93 1146ft 0kts
15-Jun-18 11:53 34.102166 -117.224730 93 1146ft 0kts
15-Jun-18 11:54 34.101066 -117.225026 198 1145ft 9kts
15-Jun-18 11:55 34.100509 -117.226109 254 1141ft 7kts

Navigation Log

Ident Type
1. KSBD Airport
2. KEMT Airport